Wetterverlauf

Letzte Wetterlage 31.07.2014 07:00
Wetterdiagramm
Tabellarische Darstellung
Datum Temperatur Windchill Feuchte Luftdruck Windrichtung Windstärke Niederschlag
31.07.2014 07:00 15,0 °C 15,0 °C 99 % 1015,4 hPa 90 0.0 0,00 mm
31.07.2014 06:45 15,0 °C 15,0 °C 99 % 1015,3 hPa 157 0.0 0,00 mm
31.07.2014 06:30 15,0 °C 15,0 °C 99 % 1015,1 hPa 90 0.0 0,00 mm
31.07.2014 06:10 15,0 °C 15,0 °C 99 % 1014,9 hPa 270 0.0 0,00 mm
31.07.2014 06:00 15,1 °C 15,1 °C 99 % 1014,7 hPa 270 0.0 0,00 mm
31.07.2014 05:45 15,3 °C 15,3 °C 99 % 1014,6 hPa 248 0.0 0,00 mm
31.07.2014 05:30 15,5 °C 15,5 °C 99 % 1014,6 hPa 116 0.0 0,00 mm
31.07.2014 05:10 16,0 °C 16,0 °C 99 % 1014,4 hPa 0 0.0 0,00 mm
31.07.2014 05:00 16,2 °C 16,2 °C 99 % 1014,3 hPa 153 0.0 0,00 mm
31.07.2014 04:45 16,4 °C 16,4 °C 99 % 1014,3 hPa 45 0.0 0,00 mm
31.07.2014 04:30 16,5 °C 16,5 °C 99 % 1014,2 hPa 138 0.0 0,00 mm
31.07.2014 04:10 16,6 °C 16,6 °C 99 % 1014,4 hPa 45 0.0 0,00 mm
31.07.2014 04:00 16,6 °C 16,6 °C 99 % 1014,4 hPa 109 0.0 0,00 mm
31.07.2014 03:45 16,7 °C 16,7 °C 99 % 1014,3 hPa 133 0.0 0,00 mm
31.07.2014 03:30 16,7 °C 16,7 °C 99 % 1014,3 hPa 90 0.0 0,00 mm
31.07.2014 03:10 16,7 °C 16,7 °C 99 % 1014,3 hPa 90 0.0 0,00 mm
31.07.2014 03:00 16,7 °C 16,7 °C 99 % 1014,2 hPa 208 0.0 0,00 mm
31.07.2014 02:45 16,8 °C 16,8 °C 99 % 1014,3 hPa 225 0.0 0,00 mm
31.07.2014 02:30 17,0 °C 17,0 °C 99 % 1014,2 hPa 259 0.0 0,00 mm
31.07.2014 02:10 17,0 °C 17,0 °C 99 % 1014,2 hPa 315 0.0 0,00 mm
31.07.2014 02:00 17,0 °C 17,0 °C 99 % 1014,0 hPa 270 0.0 0,00 mm
31.07.2014 01:45 17,0 °C 17,0 °C 99 % 1014,0 hPa 270 0.0 0,00 mm
31.07.2014 01:30 17,0 °C 17,0 °C 99 % 1013,8 hPa 270 0.0 0,00 mm
31.07.2014 01:10 17,0 °C 17,0 °C 99 % 1013,8 hPa 270 0.0 0,00 mm
31.07.2014 01:00 16,9 °C 16,9 °C 99 % 1013,8 hPa 270 0.0 0,00 mm
Empfehlen Sie wetter.com
| Mehr
Neue Wetterwarnung

Neue Niederschlagsmeldung
Neue Meldung
Regen Liveticker
    sehr starker Regen/Gewitter
    starker Regen/Gewitter
    mäßiger bis starker Regen
    mäßiger Regen
    leichter bis mäßiger Regen
    kein Regen